createdAt,value
2019-02-28T00:00:16.832Z,3.4
2019-02-28T00:05:22.633Z,2.9
2019-02-28T00:10:31.627Z,3.1
2019-02-28T00:15:35.872Z,3.3
2019-02-28T00:20:39.664Z,2.9
2019-02-28T00:25:45.265Z,2.8
2019-02-28T00:30:51.048Z,2.9
2019-02-28T00:35:56.932Z,2.8
2019-02-28T00:41:02.714Z,2.8
2019-02-28T00:46:11.007Z,2.9
2019-02-28T00:51:16.902Z,2.7
2019-02-28T00:56:21.126Z,2.9
2019-02-28T01:01:23.793Z,2.8
2019-02-28T01:06:29.003Z,2.8
2019-02-28T01:11:34.743Z,2.5
2019-02-28T01:16:42.269Z,2.6
2019-02-28T01:21:47.922Z,2.7
2019-02-28T01:26:53.441Z,2.5
2019-02-28T01:31:59.160Z,2.5
2019-02-28T01:37:04.682Z,2.7
2019-02-28T01:42:10.122Z,2.2
2019-02-28T01:47:15.771Z,2.4
2019-02-28T01:52:25.301Z,2.5
2019-02-28T01:57:30.696Z,2.4
2019-02-28T02:02:39.151Z,2.2
2019-02-28T02:07:45.220Z,2.4
2019-02-28T02:12:50.567Z,2.1
2019-02-28T02:17:55.888Z,2.4
2019-02-28T02:23:01.953Z,2.3
2019-02-28T02:28:07.881Z,2.3
2019-02-28T02:33:16.216Z,2.3
2019-02-28T02:38:21.627Z,2.1
2019-02-28T02:43:26.915Z,2.3
2019-02-28T02:48:32.298Z,2.1
2019-02-28T02:53:43.315Z,2.2
2019-02-28T02:58:39.271Z,2.2
2019-02-28T03:03:45.399Z,2.4
2019-02-28T03:08:51.336Z,2.2
2019-02-28T03:13:56.459Z,2
2019-02-28T03:19:02.294Z,2.3
2019-02-28T03:24:14.546Z,2.5
2019-02-28T03:29:11.366Z,2.1
2019-02-28T03:34:16.994Z,2
2019-02-28T03:39:26.434Z,2.1
2019-02-28T03:44:31.849Z,2
2019-02-28T03:49:37.527Z,2
2019-02-28T03:54:42.768Z,2
2019-02-28T03:59:56.957Z,2.2
2019-02-28T04:04:53.152Z,2
2019-02-28T04:09:58.118Z,2.1
2019-02-28T04:15:11.142Z,2.2
2019-02-28T04:20:06.861Z,1.8
2019-02-28T04:25:12.333Z,2.1
2019-02-28T04:30:17.484Z,1.9
2019-02-28T04:35:26.227Z,1.7
2019-02-28T04:40:31.867Z,1.8
2019-02-28T04:45:37.219Z,1.9
2019-02-28T04:50:42.628Z,1.7
2019-02-28T04:55:48.176Z,1.7
2019-02-28T05:00:53.563Z,1.3
2019-02-28T05:05:57.912Z,1.4
2019-02-28T05:11:03.158Z,1.5
2019-02-28T05:16:12.267Z,1.6
2019-02-28T05:21:20.428Z,1.6
2019-02-28T05:26:27.120Z,1.4
2019-02-28T05:31:32.519Z,1.5
2019-02-28T05:36:39.611Z,1.5
2019-02-28T05:41:50.122Z,1.5
2019-02-28T05:46:58.991Z,1.7
2019-02-28T05:52:04.260Z,1.4
2019-02-28T05:55:12.390Z,1.9
2019-02-28T06:00:18.125Z,2.7
2019-02-28T06:05:24.317Z,2.9
2019-02-28T06:10:28.860Z,2.4
2019-02-28T06:15:37.923Z,2.4
2019-02-28T06:20:43.234Z,2.4
2019-02-28T06:25:49.151Z,2.4
2019-02-28T06:30:55.067Z,2.4
2019-02-28T06:36:00.776Z,2.6
2019-02-28T06:41:09.845Z,2.5
2019-02-28T06:46:16.248Z,2.4
2019-02-28T06:51:21.480Z,1.9
2019-02-28T06:56:26.000Z,5.4
2019-02-28T07:01:31.524Z,6.1
2019-02-28T07:06:37.405Z,6.3
2019-02-28T07:11:43.976Z,7.2
2019-02-28T07:16:49.956Z,7.3
2019-02-28T07:21:55.903Z,7
2019-02-28T07:27:01.138Z,7.1
2019-02-28T07:32:09.017Z,6.7
2019-02-28T07:37:19.661Z,7.7
2019-02-28T07:42:15.039Z,5.7
2019-02-28T07:47:20.650Z,4.7
2019-02-28T07:52:32.245Z,4.4
2019-02-28T07:57:28.736Z,4.2
2019-02-28T08:02:40.058Z,3.8
2019-02-28T08:07:36.099Z,3.5
2019-02-28T08:12:41.539Z,4.8
2019-02-28T08:17:47.238Z,3.6
2019-02-28T08:22:52.625Z,3.3
2019-02-28T08:27:52.940Z,3.3
2019-02-28T08:32:54.887Z,3
2019-02-28T08:38:00.282Z,2.5
2019-02-28T08:43:05.640Z,3
2019-02-28T08:48:12.584Z,2.4
2019-02-28T08:53:20.653Z,1.9
2019-02-28T08:58:24.555Z,2
2019-02-28T09:03:29.820Z,1.9
2019-02-28T09:08:35.740Z,1.7
2019-02-28T09:13:44.354Z,1.7
2019-02-28T09:18:50.209Z,1.5
2019-02-28T09:23:55.747Z,1.4
2019-02-28T10:11:37.190Z,1.1
2019-02-28T10:16:34.599Z,1.1
2019-02-28T10:21:40.505Z,1.2
2019-02-28T10:26:52.352Z,1.2
2019-02-28T10:31:47.895Z,0.9
2019-02-28T10:36:53.664Z,1
2019-02-28T10:42:04.985Z,0.9
2019-02-28T10:47:01.360Z,0.8
2019-02-28T10:52:07.027Z,0.9
2019-02-28T10:57:12.600Z,0.8
2019-02-28T11:02:20.673Z,0.9
2019-02-28T11:07:26.333Z,0.8
2019-02-28T11:12:32.093Z,0.7
2019-02-28T11:17:37.921Z,0.7
2019-02-28T11:22:43.676Z,0.7
2019-02-28T11:27:49.073Z,0.8
2019-02-28T11:33:02.974Z,0.7
2019-02-28T11:37:58.503Z,0.7
2019-02-28T11:43:03.883Z,0.8
2019-02-28T11:48:09.957Z,0.7
2019-02-28T11:53:13.678Z,0.7
2019-02-28T11:58:20.677Z,0.7
2019-02-28T12:03:25.900Z,0.8
2019-02-28T12:08:31.706Z,0.7
2019-02-28T12:13:37.138Z,0.6
2019-02-28T12:18:42.973Z,2.5
2019-02-28T12:23:48.383Z,1.5
2019-02-28T12:28:54.333Z,1.1
2019-02-28T12:34:00.242Z,1.2
2019-02-28T12:39:06.002Z,1
2019-02-28T12:44:15.371Z,1.1
2019-02-28T12:49:25.559Z,1
2019-02-28T12:54:22.987Z,0.9
2019-02-28T12:59:26.702Z,0.9
2019-02-28T13:04:35.714Z,0.8
2019-02-28T13:09:42.610Z,0.9
2019-02-28T13:14:48.672Z,2.9
2019-02-28T13:19:56.490Z,5.6
2019-02-28T13:25:02.822Z,5.8
2019-02-28T13:30:12.356Z,5.7
2019-02-28T13:35:18.304Z,6.1
2019-02-28T13:40:23.943Z,5.3
2019-02-28T13:45:31.240Z,4.9
2019-02-28T13:50:35.422Z,6.1
2019-02-28T13:55:41.419Z,5.8
2019-02-28T14:00:47.984Z,5.7
2019-02-28T14:05:53.035Z,6
2019-02-28T14:10:58.704Z,6.8
2019-02-28T14:16:03.049Z,6.8
2019-02-28T14:21:08.421Z,6.7
2019-02-28T14:26:14.910Z,6.7
2019-02-28T14:31:23.368Z,6.7
2019-02-28T14:36:29.518Z,6.2
2019-02-28T14:41:35.305Z,6.5
2019-02-28T14:46:40.551Z,6
2019-02-28T14:51:46.226Z,5.9
2019-02-28T14:56:52.210Z,5.6
2019-02-28T15:01:58.352Z,5.6
2019-02-28T15:07:05.377Z,5.5
2019-02-28T15:12:11.143Z,4.8
2019-02-28T15:17:16.724Z,5.1
2019-02-28T15:22:22.386Z,4.8
2019-02-28T15:27:27.984Z,4.9
2019-02-28T15:32:33.831Z,4.7
2019-02-28T15:37:39.325Z,6.3
2019-02-28T15:42:45.134Z,6.7
2019-02-28T15:47:50.513Z,6.7
2019-02-28T15:52:55.451Z,6.6
2019-02-28T15:58:05.740Z,6.6
2019-02-28T16:03:01.951Z,9.7
2019-02-28T16:08:13.487Z,9.2
2019-02-28T16:13:09.305Z,10.5
2019-02-28T16:18:15.837Z,10
2019-02-28T16:23:30.895Z,8.9
2019-02-28T16:28:21.784Z,8.9
2019-02-28T16:33:27.857Z,8.3
2019-02-28T16:38:33.601Z,8.2
2019-02-28T16:43:39.619Z,7.6
2019-02-28T16:48:45.081Z,7.5
2019-02-28T16:53:50.595Z,7.7
2019-02-28T16:58:57.244Z,7.1
2019-02-28T17:03:55.319Z,7.3
2019-02-28T17:09:00.853Z,7.2
2019-02-28T17:14:01.295Z,6.9
2019-02-28T17:19:08.490Z,7
2019-02-28T17:24:15.004Z,6.9
2019-02-28T17:29:26.107Z,6.3
2019-02-28T17:34:25.983Z,6.2
2019-02-28T17:39:33.221Z,6.3
2019-02-28T17:44:39.509Z,5.9
2019-02-28T17:49:45.147Z,6.2
2019-02-28T17:54:50.748Z,6.4
2019-02-28T17:59:51.505Z,5.6
2019-02-28T18:04:58.091Z,5.8
2019-02-28T18:10:04.542Z,5.3
2019-02-28T18:15:10.488Z,5.2
2019-02-28T18:20:16.476Z,5.4
2019-02-28T18:25:22.805Z,4.9
2019-02-28T18:30:29.540Z,5.1
2019-02-28T18:35:35.529Z,5.2
2019-02-28T18:40:40.806Z,5
2019-02-28T18:45:46.432Z,4.9
2019-02-28T18:50:53.618Z,5.1
2019-02-28T18:55:59.928Z,4.8
2019-02-28T19:01:05.097Z,4.7
2019-02-28T19:06:11.157Z,4.9
2019-02-28T19:11:19.941Z,4.7
2019-02-28T19:16:26.055Z,4.6
2019-02-28T19:21:31.805Z,10.3
2019-02-28T19:26:37.678Z,5.3
2019-02-28T19:31:43.468Z,3.3
2019-02-28T19:36:48.817Z,3.1
2019-02-28T19:41:54.578Z,2.7
2019-02-28T19:47:00.720Z,2.3
2019-02-28T19:52:04.791Z,2.2
2019-02-28T19:57:11.106Z,2.3
2019-02-28T20:02:17.005Z,1.9
2019-02-28T20:07:23.365Z,1.7
2019-02-28T20:12:31.077Z,1.9
2019-02-28T20:17:30.105Z,1.6
2019-02-28T20:22:35.173Z,1.6
2019-02-28T20:27:41.030Z,1.5
2019-02-28T20:32:46.637Z,1.5
2019-02-28T20:37:53.209Z,1.5
2019-02-28T20:42:58.928Z,1.5
2019-02-28T20:48:05.162Z,1.4
2019-02-28T20:53:10.609Z,1.4
2019-02-28T20:58:17.041Z,1.5
2019-02-28T21:03:22.924Z,1.5
2019-02-28T21:08:28.314Z,1.5
2019-02-28T21:13:34.010Z,1.3
2019-02-28T21:18:39.825Z,1.5
2019-02-28T21:23:45.175Z,1.4
2019-02-28T21:28:50.679Z,1.4
2019-02-28T21:33:56.312Z,1.3
2019-02-28T21:39:05.232Z,1.3
2019-02-28T21:44:10.499Z,1.3
2019-02-28T21:49:16.506Z,1.1
2019-02-28T21:54:21.820Z,1.4
2019-02-28T21:59:27.153Z,1.4
2019-02-28T22:04:32.852Z,1.6
2019-02-28T22:09:39.231Z,1.6
2019-02-28T22:14:44.520Z,1.7
2019-02-28T22:19:50.563Z,1.7
2019-02-28T22:24:56.164Z,1.4
2019-02-28T22:30:01.771Z,1.5
2019-02-28T22:35:07.756Z,1.5
2019-02-28T22:40:13.876Z,1.4
2019-02-28T22:45:19.002Z,1.5
2019-02-28T22:50:23.214Z,1.4
2019-02-28T22:55:28.664Z,1.5
2019-02-28T23:00:34.697Z,1.5
2019-02-28T23:05:40.708Z,1.7
2019-02-28T23:10:46.372Z,1.6
2019-02-28T23:15:52.097Z,1.6
2019-02-28T23:20:58.109Z,1.6
2019-02-28T23:26:07.224Z,1.7
2019-02-28T23:31:13.529Z,1.5
2019-02-28T23:36:19.323Z,1.9
2019-02-28T23:41:25.277Z,1.7
2019-02-28T23:46:31.213Z,1.7
2019-02-28T23:51:36.504Z,1.7
2019-02-28T23:56:42.356Z,1.7
